createdAt,value
2023-01-06T00:01:30.198Z,73.30
2023-01-06T00:06:32.049Z,73.35
2023-01-06T00:11:33.719Z,73.14
2023-01-06T00:16:36.423Z,73.39
2023-01-06T00:21:37.790Z,73.30
2023-01-06T00:26:39.170Z,73.81
2023-01-06T00:31:40.524Z,73.75
2023-01-06T00:36:42.002Z,73.64
2023-01-06T00:42:01.777Z,74.10
2023-01-06T00:47:06.951Z,73.98
2023-01-06T00:52:08.412Z,73.36
2023-01-06T00:57:10.179Z,73.85
2023-01-06T01:02:11.632Z,73.33
2023-01-06T01:07:13.126Z,73.51
2023-01-06T01:12:14.622Z,73.21
2023-01-06T01:17:19.250Z,73.06
2023-01-06T01:22:21.633Z,73.19
2023-01-06T01:27:23.008Z,73.14
2023-01-06T01:32:24.380Z,73.09
2023-01-06T01:37:25.730Z,72.90
2023-01-06T01:42:27.113Z,73.09
2023-01-06T01:47:37.291Z,73.01
2023-01-06T01:52:40.722Z,72.75
2023-01-06T01:58:05.500Z,72.70
2023-01-06T02:03:07.494Z,73.39
2023-01-06T02:08:31.733Z,73.58
2023-01-06T02:13:35.635Z,73.31
2023-01-06T02:18:53.755Z,73.63
2023-01-06T02:24:29.157Z,73.59
2023-01-06T02:29:50.092Z,73.53
2023-01-06T02:35:37.593Z,73.48
2023-01-06T02:40:54.571Z,73.84
2023-01-06T02:46:08.494Z,74.35
2023-01-06T02:51:25.389Z,74.44
2023-01-06T02:56:32.059Z,75.69
2023-01-06T03:01:41.378Z,76.57
2023-01-06T03:06:47.105Z,76.22
2023-01-06T03:11:51.308Z,76.90
2023-01-06T03:16:53.500Z,76.54
2023-01-06T03:21:56.415Z,76.89
2023-01-06T03:26:58.912Z,76.93
2023-01-06T03:32:13.703Z,76.88
2023-01-06T03:37:30.201Z,76.34
2023-01-06T03:42:54.431Z,76.02
2023-01-06T03:48:19.501Z,75.90
2023-01-06T03:53:29.093Z,75.49
2023-01-06T03:58:31.040Z,76.15
2023-01-06T04:03:32.645Z,76.06
2023-01-06T04:08:34.110Z,76.54
2023-01-06T04:13:35.420Z,76.90
2023-01-06T04:18:36.778Z,76.99
2023-01-06T04:23:38.168Z,77.11
2023-01-06T04:28:39.616Z,77.00
2023-01-06T04:33:40.989Z,76.99
2023-01-06T04:38:42.357Z,77.04
2023-01-06T04:43:43.787Z,77.39
2023-01-06T04:48:45.417Z,76.88
2023-01-06T04:53:47.659Z,77.29
2023-01-06T04:58:49.014Z,77.20
2023-01-06T05:03:50.908Z,76.42
2023-01-06T05:08:52.304Z,76.48
2023-01-06T05:13:54.141Z,77.19
2023-01-06T05:18:55.989Z,77.11
2023-01-06T05:23:57.404Z,76.78
2023-01-06T05:28:58.839Z,76.56
2023-01-06T05:34:00.240Z,76.82
2023-01-06T05:39:01.711Z,76.56
2023-01-06T05:44:03.304Z,75.99
2023-01-06T05:49:05.027Z,76.45
2023-01-06T05:54:09.705Z,75.87
2023-01-06T05:59:11.067Z,75.88
2023-01-06T06:04:13.389Z,75.44
2023-01-06T06:09:14.723Z,75.60
2023-01-06T06:14:17.302Z,76.02
2023-01-06T06:19:19.208Z,75.27
2023-01-06T06:24:20.568Z,75.42
2023-01-06T06:29:21.896Z,75.58
2023-01-06T06:34:23.264Z,75.07
2023-01-06T06:39:24.576Z,75.30
2023-01-06T06:44:25.945Z,74.79
2023-01-06T06:49:27.307Z,74.96
2023-01-06T06:54:28.635Z,74.96
2023-01-06T06:59:29.972Z,74.36
2023-01-06T07:04:31.394Z,74.51
2023-01-06T07:09:32.763Z,74.25
2023-01-06T07:14:34.093Z,73.88
2023-01-06T07:19:35.476Z,74.16
2023-01-06T07:24:36.805Z,73.70
2023-01-06T07:29:38.206Z,73.20
2023-01-06T07:34:39.566Z,73.24
2023-01-06T07:39:40.976Z,73.01
2023-01-06T07:44:42.410Z,72.76
2023-01-06T07:49:43.754Z,72.65
2023-01-06T07:54:45.092Z,72.62
2023-01-06T07:59:46.459Z,72.36
2023-01-06T08:04:48.569Z,72.61
2023-01-06T08:09:49.894Z,72.74
2023-01-06T08:14:51.208Z,72.39
2023-01-06T08:19:52.539Z,71.78
2023-01-06T08:24:53.937Z,71.70
2023-01-06T08:29:55.341Z,71.71
2023-01-06T08:34:56.742Z,71.79
2023-01-06T08:39:58.108Z,71.20
2023-01-06T08:44:59.597Z,71.40
2023-01-06T08:50:00.985Z,71.46
2023-01-06T08:55:02.427Z,71.12
2023-01-06T09:00:05.809Z,70.55
2023-01-06T09:05:07.621Z,70.81
2023-01-06T09:10:09.671Z,70.07
2023-01-06T09:15:11.325Z,70.44
2023-01-06T09:20:12.667Z,69.97
2023-01-06T09:25:14.401Z,69.80
2023-01-06T09:30:15.992Z,69.33
2023-01-06T09:35:17.358Z,69.32
2023-01-06T09:40:24.037Z,69.13
2023-01-06T09:45:46.606Z,68.70
2023-01-06T09:50:53.959Z,68.98
2023-01-06T09:55:58.099Z,69.03
2023-01-06T10:01:06.656Z,68.48
2023-01-06T10:06:39.188Z,68.40
2023-01-06T10:11:59.501Z,68.46
2023-01-06T10:17:38.441Z,67.89
2023-01-06T10:23:01.227Z,67.65
2023-01-06T10:28:13.683Z,67.49
2023-01-06T10:38:52.274Z,67.06
2023-01-06T10:43:53.896Z,66.81
2023-01-06T10:48:55.269Z,66.80
2023-01-06T10:53:57.756Z,66.56
2023-01-06T10:59:06.594Z,66.07
2023-01-06T11:04:13.284Z,66.26
2023-01-06T11:09:39.329Z,65.92
2023-01-06T11:14:41.519Z,66.00
2023-01-06T11:19:45.223Z,66.00
2023-01-06T11:24:54.313Z,65.42
2023-01-06T11:29:55.781Z,65.17
2023-01-06T11:35:00.560Z,65.11
2023-01-06T11:40:11.329Z,64.69
2023-01-06T11:45:35.180Z,65.05
2023-01-06T11:50:37.051Z,64.88
2023-01-06T11:55:38.593Z,65.02
2023-01-06T12:01:15.999Z,64.66
2023-01-06T12:06:30.333Z,64.38
2023-01-06T12:11:45.764Z,64.25
2023-01-06T12:16:56.848Z,64.03
2023-01-06T12:21:59.265Z,63.56
2023-01-06T12:27:06.056Z,63.44
2023-01-06T12:32:14.282Z,62.77
2023-01-06T12:37:38.140Z,62.77
2023-01-06T12:43:07.356Z,62.46
2023-01-06T12:48:36.376Z,62.24
2023-01-06T12:53:45.391Z,62.35
2023-01-06T12:58:58.861Z,62.33
2023-01-06T13:04:45.120Z,62.29
2023-01-06T13:10:13.191Z,62.03
2023-01-06T13:15:29.046Z,62.41
2023-01-06T13:20:55.330Z,62.42
2023-01-06T13:26:17.967Z,62.48
2023-01-06T13:31:49.738Z,62.48
2023-01-06T13:37:20.365Z,62.30
2023-01-06T13:42:32.069Z,62.41
2023-01-06T13:47:35.455Z,62.47
2023-01-06T13:52:37.173Z,62.49
2023-01-06T13:57:39.470Z,62.17
2023-01-06T14:02:42.644Z,62.44
2023-01-06T14:08:02.841Z,62.51
2023-01-06T14:13:24.573Z,62.79
2023-01-06T14:18:37.973Z,62.93
2023-01-06T14:23:53.884Z,63.03
2023-01-06T14:28:55.221Z,62.89
2023-01-06T14:33:59.871Z,63.00
2023-01-06T14:39:05.994Z,63.25
2023-01-06T14:44:15.550Z,63.54
2023-01-06T14:49:24.833Z,63.29
2023-01-06T14:54:36.308Z,63.76
2023-01-06T14:59:37.708Z,63.39
2023-01-06T15:04:39.698Z,63.68
2023-01-06T15:09:41.157Z,64.02
2023-01-06T15:14:42.463Z,64.04
2023-01-06T15:19:46.471Z,63.92
2023-01-06T15:24:49.071Z,63.97
2023-01-06T15:29:52.946Z,64.00
2023-01-06T15:34:57.931Z,64.11
2023-01-06T15:39:59.244Z,63.89
2023-01-06T15:45:02.237Z,63.94
2023-01-06T15:50:07.619Z,63.83
2023-01-06T15:55:25.540Z,64.17
2023-01-06T16:00:31.165Z,64.22
2023-01-06T16:05:36.835Z,64.41
2023-01-06T16:10:38.570Z,64.32
2023-01-06T16:15:46.279Z,64.41
2023-01-06T16:20:47.724Z,64.42
2023-01-06T16:25:49.747Z,64.62
2023-01-06T16:31:09.509Z,64.63
2023-01-06T16:36:15.896Z,64.91
2023-01-06T16:41:19.024Z,64.82
2023-01-06T16:46:25.768Z,64.77
2023-01-06T16:51:28.767Z,64.80
2023-01-06T16:56:30.209Z,65.04
2023-01-06T17:01:31.772Z,64.96
2023-01-06T17:06:33.160Z,64.88
2023-01-06T17:11:37.677Z,64.64
2023-01-06T17:16:40.806Z,64.99
2023-01-06T17:21:42.171Z,65.37
2023-01-06T17:26:58.254Z,64.96
2023-01-06T17:32:02.247Z,65.29
2023-01-06T17:37:13.119Z,65.53
2023-01-06T17:42:14.390Z,65.55
2023-01-06T17:47:15.718Z,65.55
2023-01-06T17:52:21.453Z,65.49
2023-01-06T17:57:23.091Z,65.55
2023-01-06T18:02:45.727Z,66.10
2023-01-06T18:07:47.051Z,66.03
2023-01-06T18:12:48.380Z,65.67
2023-01-06T18:17:49.722Z,65.73
2023-01-06T18:22:51.104Z,66.03
2023-01-06T18:27:52.648Z,65.72
2023-01-06T18:32:54.121Z,65.42
2023-01-06T18:38:00.281Z,65.66
2023-01-06T18:43:16.988Z,65.98
2023-01-06T18:48:27.637Z,65.51
2023-01-06T18:53:31.423Z,65.89
2023-01-06T18:58:47.897Z,65.82
2023-01-06T19:04:29.802Z,66.23
2023-01-06T19:09:37.844Z,66.18
2023-01-06T19:14:42.792Z,66.05
2023-01-06T19:19:44.230Z,65.77
2023-01-06T19:24:49.720Z,65.62
2023-01-06T19:29:54.018Z,65.66
2023-01-06T19:34:55.594Z,65.87
2023-01-06T19:39:57.899Z,65.54
2023-01-06T19:45:09.154Z,65.68
2023-01-06T19:50:21.452Z,65.44
2023-01-06T19:55:28.317Z,65.47
2023-01-06T20:00:35.541Z,65.61
2023-01-06T20:05:36.927Z,65.12
2023-01-06T20:10:38.244Z,65.42
2023-01-06T20:15:39.625Z,65.79
2023-01-06T20:20:41.018Z,65.78
2023-01-06T20:25:43.140Z,66.02
2023-01-06T20:30:46.366Z,66.23
2023-01-06T20:35:47.842Z,66.05
2023-01-06T20:40:49.738Z,66.68
2023-01-06T20:45:51.180Z,66.29
2023-01-06T20:50:53.391Z,66.63
2023-01-06T20:55:54.850Z,66.59
2023-01-06T21:00:56.281Z,66.77
2023-01-06T21:05:57.697Z,66.57
2023-01-06T21:10:59.031Z,66.73
2023-01-06T21:16:00.359Z,66.54
2023-01-06T21:21:01.702Z,66.49
2023-01-06T21:26:03.160Z,66.68
2023-01-06T21:31:04.873Z,66.78
2023-01-06T21:36:06.517Z,66.39
2023-01-06T21:41:26.486Z,66.22
2023-01-06T21:46:27.897Z,66.34
2023-01-06T21:51:29.348Z,66.44
2023-01-06T21:56:31.308Z,66.69
2023-01-06T22:01:32.829Z,66.74
2023-01-06T22:06:36.203Z,66.93
2023-01-06T22:11:39.574Z,66.36
2023-01-06T22:16:41.710Z,67.04
2023-01-06T22:21:44.546Z,66.83
2023-01-06T22:26:45.891Z,66.97
2023-01-06T22:31:47.214Z,66.92
2023-01-06T22:36:48.547Z,66.25
2023-01-06T22:41:49.967Z,66.89
2023-01-06T22:46:51.343Z,67.07
2023-01-06T22:51:52.656Z,67.32
2023-01-06T22:56:53.995Z,67.22
2023-01-06T23:01:55.395Z,67.30
2023-01-06T23:06:56.771Z,67.28
2023-01-06T23:11:58.099Z,67.15
2023-01-06T23:16:59.432Z,67.12
2023-01-06T23:22:00.769Z,67.04
2023-01-06T23:27:02.110Z,66.92
2023-01-06T23:32:03.608Z,67.05
2023-01-06T23:37:04.957Z,66.75
2023-01-06T23:42:07.148Z,66.72
2023-01-06T23:47:08.491Z,67.16
2023-01-06T23:52:09.848Z,67.13
2023-01-06T23:57:11.235Z,66.77
